Dixon, IL (61021)

8:03 AM CST on January 18, 2017 (GMT -0600)
Moonraker | | Change Station
Active Advisory: Flood Advisory

Elev 689 ft 41.84 °N, 89.50 °W | Updated 12 seconds ago

Overcast
Overcast
32.6 °F
Feels Like 27 °F
N
6.0
Wind Variable Wind from West

Today
High -- | Low -- °F
--% Chance of Precip.
Yesterday
High -- | Low -- °F
Precip. -- in
Pressure 30.22 in
Visibility 8.0 miles
Clouds Mostly Cloudy 500 ft
Overcast 900 ft
Windchill 27 °F
Dew Point 32 °F
Humidity 98%
Rainfall 0.00 in
Snow Depth Not available.
7:21 AM 4:56 PM
Waning Gibbous, 63% visible
METAR KSQI 181356Z AUTO 25009KT 8SM BKN005 OVC009 01/00 A3015 RMK AO2 SLP232 T00060000 FZRANO
Pressure 30.22 in
Visibility 8.0 miles
Clouds Mostly Cloudy 500 ft
Overcast 900 ft
Windchill 27 °F
Dew Point 32 °F
Humidity 98%
Rainfall 0.00 in
Snow Depth Not available.
7:21 AM 4:56 PM
Waning Gibbous, 63% visible
METAR KSQI 181356Z AUTO 25009KT 8SM BKN005 OVC009 01/00 A3015 RMK AO2 SLP232 T00060000 FZRANO

Get Your Daily Forecast Email!

Thanks for signing up!

Be on the lookout for a verification email in your inbox.

You'll start receiving the daily forecast at 8 AM.

×

10-Day Weather Forecast

Almanac

Astronomy

Jan. 18, 2017 Rise Set
Actual Time
Civil Twilight
Nautical Twilight
Astronomical Twilight
Moon
Length of Visible Light
Length of Day
Tomorrow will be .
, % of the Moon is Illuminated

Today's Extremes

State Highs State Lows

Community

WunderPhotos

Upload Photos

1,962,540 photos uploaded!

WunderBlog® & News

Nearby

Air Quality

  Air Quality AQ Index Pollutant
Not available.

Snow Depth

Station Depth Elevation

Earthquake Activity

City Distance Mag. Time & Date
Minimum magnitude displayed is 2.5.

Coastal Water Temperatures

Place Temperature

Stations

Nearby Weather Stations

Station Location Temp. Windchill Dew Point Humidity Wind Precip. Elev Updated Type
                   

Watches & Warnings

Flood Advisory
Issued: 9:04 PM CST Jan. 17, 2017 – National Weather Service

The Flood Advisory continues for
the Rock River at Dixon
* until Wednesday evening.
* At 815 PM Tuesday the stage was 13.4 feet.
* Action stage is 13.0 feet.
* Flood stage is 16.0 feet.
* Forecast... the river will continue to fall.


Lat... Lon 4196 8942 4190 8950 4183 8963 4176 8962
      4183 8943 4193 8933